Time;durP1;ratioP1;P1;durP2;ratioP2;P2;SDS_P1;SDS_P2;PMS_P1;PMS_P2;Temp;Humidity;BMP_temperature;BMP_pressure;BME280_temperature;BME280_humidity;BME280_pressure;Samples;Min_cycle;Max_cycle;Signal;HPM_P1;HPM_P2
2021/01/15 00:00:09;;;;;;;21.02;8.20;;;;;;;14.93;45.27;155041.30;1725952;81;21815;-63
2021/01/15 00:02:43;;;;;;;15.35;7.42;;;;;;;14.67;45.83;154972.88;1738614;82;21447;-62
2021/01/15 00:05:15;;;;;;;14.03;7.00;;;;;;;14.66;45.94;154970.23;1732190;82;21221;-61
2021/01/15 00:07:49;;;;;;;17.02;6.92;;;;;;;14.72;45.72;154987.34;1714409;82;21336;-62
2021/01/15 00:10:21;;;;;;;16.55;7.92;;;;;;;14.86;44.80;155024.19;1713643;83;21316;-61
2021/01/15 00:12:55;;;;;;;15.32;7.53;;;;;;;14.89;44.23;155030.75;1686856;83;21379;-63
2021/01/15 00:15:28;;;;;;;18.15;8.25;;;;;;;14.55;44.52;154942.59;1713626;83;21366;-63
2021/01/15 00:18:01;;;;;;;18.42;7.53;;;;;;;14.47;44.20;154920.22;1731945;82;21264;-63
2021/01/15 00:20:34;;;;;;;16.07;6.92;;;;;;;14.63;44.96;154962.31;1743226;82;21220;-62
2021/01/15 00:23:07;;;;;;;19.82;8.28;;;;;;;14.48;48.81;154922.84;1765677;80;21368;-62
2021/01/15 00:25:40;;;;;;;18.12;7.35;;;;;;;14.46;49.21;154917.63;1771141;81;21364;-62
2021/01/15 00:28:12;;;;;;;15.28;7.15;;;;;;;14.43;48.09;154909.72;1771106;81;21325;-61
2021/01/15 00:30:46;;;;;;;15.40;7.78;;;;;;;14.84;45.51;155018.91;1771148;81;21360;-61
2021/01/15 00:33:19;;;;;;;15.88;7.25;;;;;;;14.60;45.51;154954.41;1741985;81;21383;-62
2021/01/15 00:35:52;;;;;;;16.27;8.85;;;;;;;14.63;45.36;154962.31;1771164;81;21376;-61
2021/01/15 00:38:25;;;;;;;18.25;8.98;;;;;;;14.52;45.75;154934.67;1752959;81;21835;-60
2021/01/15 00:41:07;;;;;;;20.48;8.75;;;;;;;14.51;47.07;154932.09;1736055;82;21208;-62
2021/01/15 00:43:39;;;;;;;26.52;9.88;;;;;;;14.66;46.25;154971.52;1736513;82;21308;-62
2021/01/15 00:46:31;;;;;;;19.70;8.68;;;;;;;14.67;45.87;154972.88;1739335;82;21898;-61
2021/01/15 00:48:51;;;;;;;20.60;9.08;;;;;;;14.74;46.29;154991.27;1711878;83;21331;-60
2021/01/15 00:51:24;;;;;;;20.77;8.68;;;;;;;14.79;45.49;155005.73;1716458;82;21378;-62
2021/01/15 00:53:57;;;;;;;23.42;9.83;;;;;;;14.87;45.41;155025.48;1741469;82;21307;-60
2021/01/15 00:56:30;;;;;;;26.60;11.22;;;;;;;14.80;52.01;155008.38;1743436;82;21285;-61
2021/01/15 00:59:03;;;;;;;21.50;8.75;;;;;;;14.92;46.76;155038.66;1733328;82;21826;-61
2021/01/15 01:01:39;;;;;;;26.35;9.08;;;;;;;14.97;45.46;155051.80;1722765;83;21829;-61
2021/01/15 01:04:12;;;;;;;24.30;10.00;;;;;;;14.95;45.45;155047.86;1724103;83;21378;-60
2021/01/15 01:06:46;;;;;;;20.62;8.45;;;;;;;15.00;45.38;155059.70;1721066;81;21333;-61
2021/01/15 01:09:19;;;;;;;21.30;8.80;;;;;;;15.06;45.16;155075.47;1724221;82;21275;-61
2021/01/15 01:11:52;;;;;;;18.85;8.38;;;;;;;15.06;44.81;155075.47;1742097;81;21205;-61
2021/01/15 01:14:25;;;;;;;17.30;8.18;;;;;;;15.38;44.36;155159.80;1741720;82;21257;-61
2021/01/15 01:16:57;;;;;;;20.88;8.93;;;;;;;15.40;44.37;155167.66;1741698;82;21225;-60
2021/01/15 01:19:31;;;;;;;20.62;8.88;;;;;;;15.40;44.53;155166.38;1741938;82;21198;-60
2021/01/15 01:22:03;;;;;;;17.95;9.00;;;;;;;15.70;44.35;155246.69;1741710;82;21197;-60
2021/01/15 01:24:36;;;;;;;19.98;8.95;;;;;;;15.51;44.46;155196.63;1740997;82;21258;-60
2021/01/15 01:27:09;;;;;;;18.85;8.53;;;;;;;15.41;44.64;155170.30;1741800;82;21190;-63
2021/01/15 01:29:42;;;;;;;24.23;9.38;;;;;;;15.07;53.55;155079.45;1741718;82;21273;-62
2021/01/15 01:32:15;;;;;;;19.30;8.73;;;;;;;15.33;46.78;155146.62;1741759;82;21213;-61
2021/01/15 01:34:48;;;;;;;21.07;9.30;;;;;;;15.55;45.16;155205.88;1739576;82;21376;-61
2021/01/15 01:37:21;;;;;;;19.60;8.40;;;;;;;15.53;44.83;155200.61;1724486;83;21397;-61
2021/01/15 01:39:54;;;;;;;17.90;8.93;;;;;;;15.37;44.91;155157.16;1722650;83;21267;-61
2021/01/15 01:42:27;;;;;;;18.45;8.50;;;;;;;15.39;45.09;155163.73;1719694;82;21392;-61
2021/01/15 01:45:01;;;;;;;24.05;10.55;;;;;;;15.31;45.13;155141.34;1707724;83;21227;-61
2021/01/15 01:47:33;;;;;;;21.15;9.35;;;;;;;15.47;44.73;155186.13;1705998;83;21251;-61
2021/01/15 01:50:08;;;;;;;25.25;10.25;;;;;;;15.46;44.56;155182.14;1706440;83;21334;-63
2021/01/15 01:52:41;;;;;;;25.05;12.00;;;;;;;15.38;44.39;155161.09;1708609;83;21707;-61
2021/01/15 01:55:15;;;;;;;23.22;10.88;;;;;;;15.26;43.98;155129.50;1707202;83;21215;-62
2021/01/15 01:57:48;;;;;;;21.33;9.73;;;;;;;15.25;44.10;155126.86;1706327;83;21240;-62
2021/01/15 02:00:21;;;;;;;23.77;9.68;;;;;;;15.04;43.13;155071.53;1708101;83;21239;-61
2021/01/15 02:02:54;;;;;;;23.20;9.53;;;;;;;15.14;44.24;155096.56;1707581;83;21228;-61
2021/01/15 02:05:27;;;;;;;20.70;9.15;;;;;;;15.18;44.16;155107.06;1705998;83;21433;-61
2021/01/15 02:08:00;;;;;;;22.67;10.48;;;;;;;15.01;42.98;155063.63;1707621;83;21244;-61
2021/01/15 02:11:04;;;;;;;22.52;10.18;;;;;;;14.98;43.91;155055.78;1705707;82;21288;-62
2021/01/15 02:14:03;;;;;;;21.37;10.63;;;;;;;15.67;100.00;155238.78;1714358;82;22446;-60
2021/01/15 02:16:36;;;;;;;31.12;12.90;;;;;;;16.61;58.42;155486.50;1708478;83;21189;-61
2021/01/15 02:19:42;;;;;;;23.55;10.93;;;;;;;16.07;48.93;155342.83;1721766;82;21213;-61
2021/01/15 02:22:43;;;;;;;19.48;9.58;;;;;;;15.28;62.21;155133.48;1737751;82;21308;-60
2021/01/15 02:25:51;;;;;;;22.55;9.58;;;;;;;15.02;57.08;155064.97;1737867;82;21892;-60
2021/01/15 02:29:05;;;;;;;22.55;9.30;;;;;;;14.89;56.50;155030.75;1738012;82;21351;-60
2021/01/15 02:32:28;;;;;;;24.07;9.58;;;;;;;14.79;52.26;155005.73;1716295;82;21228;-61
2021/01/15 02:35:09;;;;;;;20.02;10.98;;;;;;;15.00;70.40;155059.70;1645589;86;21208;-62
2021/01/15 02:38:22;;;;;;;21.07;9.15;;;;;;;15.49;52.63;155191.41;1650183;85;21287;-61
2021/01/15 02:41:26;;;;;;;20.35;9.60;;;;;;;15.44;54.67;155178.22;1634982;87;21295;-62
2021/01/15 02:44:06;;;;;;;20.17;7.92;;;;;;;14.75;51.07;154993.91;1706890;83;21264;-60
2021/01/15 02:46:54;;;;;;;18.90;7.90;;;;;;;14.64;48.69;154966.25;1699694;83;21235;-60
2021/01/15 02:49:28;;;;;;;17.87;7.67;;;;;;;14.52;54.43;154933.39;1719258;83;21822;-60
2021/01/15 02:52:00;;;;;;;18.90;7.40;;;;;;;14.08;100.00;154816.27;1719142;83;22447;-62
2021/01/15 02:54:34;;;;;;;18.62;8.10;;;;;;;14.84;54.20;155018.91;1718961;83;21375;-61
2021/01/15 02:57:07;;;;;;;16.50;6.67;;;;;;;14.58;49.12;154950.50;1719135;83;21414;-61
2021/01/15 02:59:40;;;;;;;18.27;7.92;;;;;;;14.41;51.98;154904.45;1718956;83;21367;-61
2021/01/15 03:02:33;;;;;;;18.07;7.37;;;;;;;15.59;54.01;155217.73;1719297;83;21815;-61
2021/01/15 03:05:24;;;;;;;17.85;8.05;;;;;;;15.66;50.44;155236.14;1719333;83;21323;-61
2021/01/15 03:07:59;;;;;;;15.28;6.90;;;;;;;15.03;52.49;155068.91;1733826;81;21399;-63
2021/01/15 03:10:33;;;;;;;16.07;6.53;;;;;;;14.85;47.53;155020.20;1749206;81;21209;-62
2021/01/15 03:13:07;;;;;;;14.58;6.80;;;;;;;14.40;55.05;154901.81;1748858;81;21289;-60
2021/01/15 03:15:40;;;;;;;14.60;7.55;;;;;;;14.33;50.39;154883.42;1748920;81;21229;-63
2021/01/15 03:18:14;;;;;;;13.78;6.25;;;;;;;14.20;49.49;154849.22;1748903;81;21732;-62
2021/01/15 03:20:47;;;;;;;14.43;6.17;;;;;;;14.08;49.22;154817.61;1749151;81;21308;-62
2021/01/15 03:23:20;;;;;;;14.23;7.58;;;;;;;13.72;46.42;154722.94;1749070;81;21197;-64
2021/01/15 03:25:53;;;;;;;19.40;7.85;;;;;;;14.09;47.42;154820.23;1748861;81;21228;-62
2021/01/15 03:28:26;;;;;;;15.15;8.05;;;;;;;14.00;51.10;154795.23;1748889;81;21236;-60
2021/01/15 03:30:59;;;;;;;15.65;7.30;;;;;;;13.76;59.76;154733.47;1748853;81;21240;-63
2021/01/15 03:33:32;;;;;;;16.85;7.25;;;;;;;14.02;53.93;154800.52;1748841;81;21189;-62
2021/01/15 03:36:06;;;;;;;14.73;6.72;;;;;;;14.08;50.81;154816.27;1748555;81;21304;-62
2021/01/15 03:38:39;;;;;;;15.55;7.30;;;;;;;14.04;50.14;154805.78;1748758;81;21193;-62
2021/01/15 03:41:12;;;;;;;16.37;8.28;;;;;;;13.45;60.87;154649.31;1748739;81;21224;-61
2021/01/15 03:43:45;;;;;;;14.20;6.62;;;;;;;13.42;61.01;154641.47;1747198;81;21194;-62
2021/01/15 03:46:19;;;;;;;20.23;9.20;;;;;;;13.30;54.28;154611.22;1735025;81;21209;-62
2021/01/15 03:48:52;;;;;;;19.20;8.35;;;;;;;13.77;98.72;154736.06;1732997;83;21337;-61
2021/01/15 03:51:25;;;;;;;18.45;7.92;;;;;;;13.11;64.16;154559.97;1733101;83;21270;-62
2021/01/15 03:53:58;;;;;;;20.40;7.65;;;;;;;13.34;60.06;154621.75;1733025;83;21218;-63
2021/01/15 03:56:31;;;;;;;19.77;9.30;;;;;;;13.47;57.05;154655.92;1733604;82;21724;-60
2021/01/15 03:59:05;;;;;;;19.87;7.22;;;;;;;13.48;51.70;154658.56;1736190;82;21213;-61
2021/01/15 04:01:40;;;;;;;15.98;6.87;;;;;;;13.37;56.68;154628.31;1735167;82;21206;-61
2021/01/15 04:04:13;;;;;;;18.87;7.08;;;;;;;12.47;55.45;154391.83;1733420;82;21241;-62
2021/01/15 04:06:46;;;;;;;13.53;6.53;;;;;;;12.86;58.64;154494.22;1733009;83;21499;-60
2021/01/15 04:09:19;;;;;;;15.38;6.00;;;;;;;13.17;57.20;154575.75;1733094;83;21202;-62
2021/01/15 04:11:51;;;;;;;12.00;5.20;;;;;;;12.81;51.67;154481.13;1733349;82;21202;-63
2021/01/15 04:14:25;;;;;;;12.18;5.30;;;;;;;12.00;51.66;154268.42;1733508;82;21376;-62
2021/01/15 04:16:58;;;;;;;14.78;5.67;;;;;;;12.28;50.87;154340.61;1733094;83;21264;-60
2021/01/15 04:19:32;;;;;;;13.15;6.90;;;;;;;12.39;52.68;154369.48;1733207;83;21194;-60
2021/01/15 04:22:05;;;;;;;15.15;5.78;;;;;;;12.52;70.65;93683.55;1733078;83;21269;-60
2021/01/15 04:24:38;;;;;;;18.95;7.65;;;;;;;12.40;57.19;154372.13;1733391;81;21388;-60
2021/01/15 04:27:11;;;;;;;13.40;5.45;;;;;;;12.58;56.13;154419.37;1733230;83;21521;-60
2021/01/15 04:29:44;;;;;;;16.73;6.55;;;;;;;11.91;50.85;154243.47;1733115;83;21201;-61
2021/01/15 04:32:17;;;;;;;14.95;5.15;;;;;;;12.90;51.87;154504.81;1736118;82;21689;-60
2021/01/15 04:34:51;;;;;;;22.42;7.80;;;;;;;12.43;58.28;154380.02;1733471;82;21312;-61
2021/01/15 04:37:23;;;;;;;11.45;5.90;;;;;;;12.40;56.06;154372.13;1737856;82;21347;-61
2021/01/15 04:39:56;;;;;;;13.68;5.53;;;;;;;12.21;51.56;154322.25;1738026;82;21312;-62
2021/01/15 04:42:29;;;;;;;9.90;5.10;;;;;;;12.51;52.59;154402.30;1737945;82;21225;-62
2021/01/15 04:45:03;;;;;;;14.35;7.28;;;;;;;12.43;57.02;154380.02;1737904;82;21336;-65
2021/01/15 04:47:35;;;;;;;14.68;6.47;;;;;;;12.38;54.21;154366.86;1736256;82;21363;-63
2021/01/15 04:50:11;;;;;;;14.40;5.70;;;;;;;12.44;49.84;154382.64;1738018;82;21360;-65
2021/01/15 04:52:50;;;;;;;13.25;5.35;;;;;;;11.97;52.82;154260.53;1737977;82;21323;-63
2021/01/15 04:55:24;;;;;;;13.55;6.15;;;;;;;12.26;50.34;154335.34;1736111;82;21808;-67
2021/01/15 04:57:57;;;;;;;10.35;4.55;;;;;;;12.16;50.74;154310.39;1736048;81;21265;-66
2021/01/15 05:00:30;;;;;;;13.43;5.33;;;;;;;12.41;55.79;154376.05;1734415;81;21261;-66
2021/01/15 05:03:03;;;;;;;18.25;5.83;;;;;;;11.52;50.91;154139.77;1736687;81;21269;-70
2021/01/15 05:05:43;;;;;;;12.50;5.40;;;;;;;12.09;52.67;154292.03;1718160;82;21808;-65
2021/01/15 05:08:17;;;;;;;19.35;5.58;;;;;;;12.13;56.06;154301.22;1732996;81;21689;-64
2021/01/15 05:10:50;;;;;;;14.20;5.87;;;;;;;12.44;55.27;154382.64;1736713;81;21827;-66
2021/01/15 05:13:23;;;;;;;14.35;5.87;;;;;;;12.46;51.06;154387.84;1737103;82;21359;-67
2021/01/15 05:15:58;;;;;;;13.88;6.03;;;;;;;12.43;48.84;154381.31;1735935;82;21205;-64
2021/01/15 05:18:33;;;;;;;17.05;6.90;;;;;;;12.34;48.98;154357.69;1736332;82;21823;-64
2021/01/15 05:21:06;;;;;;;15.95;6.40;;;;;;;11.74;53.22;154198.87;1737091;82;21178;-60
2021/01/15 05:23:38;;;;;;;12.90;5.90;;;;;;;11.77;51.90;154206.72;1737401;82;21368;-63
2021/01/15 05:26:12;;;;;;;13.60;6.28;;;;;;;11.60;52.83;154162.13;1738008;82;21214;-61
2021/01/15 05:28:46;;;;;;;13.83;6.42;;;;;;;11.34;54.74;154093.84;1737731;82;21186;-60
2021/01/15 05:31:18;;;;;;;14.07;6.08;;;;;;;11.86;50.21;154230.38;1737839;82;21344;-61
2021/01/15 05:34:07;;;;;;;15.13;6.45;;;;;;;11.74;49.42;154200.17;1737797;82;21244;-62
2021/01/15 05:36:40;;;;;;;12.78;5.30;;;;;;;11.82;52.14;154221.16;1737022;82;21321;-60
2021/01/15 05:39:24;;;;;;;14.60;6.08;;;;;;;11.98;51.39;154263.16;1737722;82;21363;-61
2021/01/15 05:42:02;;;;;;;12.53;6.67;;;;;;;12.05;50.21;154281.52;1735829;82;21340;-61
2021/01/15 05:44:35;;;;;;;17.42;7.12;;;;;;;12.27;48.53;154339.28;1688943;82;21184;-59
2021/01/15 05:47:08;;;;;;;13.05;6.83;;;;;;;12.10;47.42;154294.67;1691819;82;21433;-61
2021/01/15 05:49:55;;;;;;;15.55;6.10;;;;;;;12.06;50.63;154282.86;1688570;85;21401;-64
2021/01/15 05:52:29;;;;;;;12.98;6.05;;;;;;;11.93;52.85;154248.73;1690627;82;21322;-61
2021/01/15 05:55:13;;;;;;;13.25;5.62;;;;;;;11.92;50.02;154247.39;1703148;82;21185;-68
2021/01/15 05:57:48;;;;;;;12.15;6.50;;;;;;;11.98;48.81;154261.83;1710623;82;21826;-63
2021/01/15 06:00:33;;;;;;;16.55;6.80;;;;;;;11.93;48.68;154248.73;1691922;82;21322;-62
2021/01/15 06:03:09;;;;;;;15.55;6.58;;;;;;;12.13;49.24;154301.22;1701586;82;21392;-61
2021/01/15 06:05:44;;;;;;;13.00;6.25;;;;;;;11.99;46.98;154265.80;1710599;84;21265;-64
2021/01/15 06:08:17;;;;;;;14.07;6.33;;;;;;;11.81;48.34;154218.52;1680034;84;21319;-62
2021/01/15 06:10:50;;;;;;;19.65;5.65;;;;;;;11.65;48.19;154173.94;1734697;82;21170;-62
2021/01/15 06:13:41;;;;;;;14.07;6.92;;;;;;;11.12;45.85;154034.81;1734415;82;21717;-62
2021/01/15 06:16:21;;;;;;;15.58;6.22;;;;;;;11.25;47.01;154068.92;1734517;82;21181;-62
2021/01/15 06:19:03;;;;;;;13.07;6.30;;;;;;;11.11;51.30;154032.23;1714688;82;21366;-62
2021/01/15 06:21:36;;;;;;;16.30;7.33;;;;;;;11.13;46.63;154038.78;1692184;82;21600;-62
2021/01/15 06:24:10;;;;;;;15.35;5.45;;;;;;;11.20;51.32;154055.83;1689171;82;21366;-63
2021/01/15 06:26:43;;;;;;;15.85;6.72;;;;;;;11.35;51.29;154095.14;1705589;82;21369;-62
2021/01/15 06:29:16;;;;;;;18.05;6.45;;;;;;;11.33;45.60;154089.94;1708392;84;21205;-61
2021/01/15 06:31:51;;;;;;;14.58;6.33;;;;;;;11.27;53.03;154074.17;1713223;82;21249;-62
2021/01/15 06:34:24;;;;;;;13.43;6.58;;;;;;;11.18;51.56;154051.88;1734574;82;21221;-62
2021/01/15 06:36:56;;;;;;;15.28;6.65;;;;;;;11.31;53.74;154084.69;1733654;82;21296;-62
2021/01/15 06:39:29;;;;;;;15.58;6.55;;;;;;;14.01;51.37;154799.16;1734421;82;21400;-63
2021/01/15 06:42:03;;;;;;;17.37;6.55;;;;;;;13.66;45.54;154705.84;1737742;82;21225;-61
2021/01/15 06:44:36;;;;;;;16.35;6.15;;;;;;;13.18;46.00;154578.39;1738024;82;21206;-63
2021/01/15 06:47:09;;;;;;;16.17;6.70;;;;;;;13.28;44.80;154604.67;1716119;82;21332;-62
2021/01/15 06:49:42;;;;;;;12.90;6.05;;;;;;;13.06;44.96;154548.16;1737780;82;21320;-62
2021/01/15 06:52:14;;;;;;;16.10;6.45;;;;;;;13.20;43.61;154583.61;1740197;82;21669;-61
2021/01/15 06:54:47;;;;;;;15.55;6.67;;;;;;;12.95;44.89;154519.25;1734331;82;21351;-62
2021/01/15 06:57:21;;;;;;;12.35;5.78;;;;;;;13.51;44.32;154666.41;1737762;82;21268;-62
2021/01/15 06:59:54;;;;;;;15.38;6.78;;;;;;;13.69;43.17;154713.75;1734412;82;21364;-63
2021/01/15 07:02:52;;;;;;;15.80;7.35;;;;;;;13.74;43.08;154728.22;1703003;82;21339;-65
2021/01/15 07:05:28;;;;;;;14.55;7.15;;;;;;;13.37;44.13;154629.59;1711111;82;21345;-63
2021/01/15 07:08:01;;;;;;;15.15;6.83;;;;;;;13.41;42.87;154638.84;1725137;81;21205;-62
2021/01/15 07:10:35;;;;;;;16.02;7.15;;;;;;;13.17;43.58;154575.75;1736626;82;21217;-63
2021/01/15 07:13:12;;;;;;;13.18;5.75;;;;;;;13.15;43.67;154570.50;1700828;82;21831;-60
2021/01/15 07:15:44;;;;;;;15.28;7.37;;;;;;;13.01;42.29;154535.05;1741640;82;21256;-61
2021/01/15 07:18:33;;;;;;;16.90;7.85;;;;;;;12.98;43.79;154525.81;1745408;81;21229;-61
2021/01/15 07:21:09;;;;;;;20.08;6.67;;;;;;;12.97;43.06;154523.17;1745433;82;21639;-61
2021/01/15 07:23:55;;;;;;;15.10;6.70;;;;;;;12.89;42.74;154502.17;1745548;82;21351;-63
2021/01/15 07:26:28;;;;;;;12.82;6.70;;;;;;;12.86;43.56;154494.22;1745742;82;21217;-65
2021/01/15 07:29:00;;;;;;;17.27;8.15;;;;;;;12.76;42.87;154467.97;1745742;82;21184;-63
2021/01/15 07:31:33;;;;;;;13.13;5.37;;;;;;;12.76;42.82;154469.31;1745615;82;21375;-64
2021/01/15 07:34:09;;;;;;;10.13;5.42;;;;;;;12.67;41.36;154445.63;1745554;82;21312;-63
2021/01/15 07:36:41;;;;;;;14.70;5.97;;;;;;;12.43;42.50;154380.02;1715348;82;21355;-63
2021/01/15 07:39:17;;;;;;;14.83;6.50;;;;;;;12.16;42.12;154310.39;1745651;82;21874;-63
2021/01/15 07:41:53;;;;;;;14.80;6.65;;;;;;;11.94;42.16;154252.66;1745716;82;21328;-64
2021/01/15 07:44:36;;;;;;;13.08;6.58;;;;;;;11.95;42.74;154253.98;1745654;82;21316;-63
2021/01/15 07:47:11;;;;;;;11.95;5.50;;;;;;;11.89;42.85;154239.56;1745892;82;21214;-64
2021/01/15 07:49:47;;;;;;;15.00;7.22;;;;;;;11.63;40.96;154169.97;1716125;82;21204;-63
2021/01/15 07:52:20;;;;;;;15.40;7.05;;;;;;;11.77;41.56;154206.72;1745548;82;21229;-61
2021/01/15 07:55:02;;;;;;;15.43;6.55;;;;;;;11.37;41.25;154100.41;1745651;82;21371;-62
2021/01/15 07:57:34;;;;;;;17.02;6.25;;;;;;;11.94;42.95;154252.66;1745694;82;21696;-62
2021/01/15 08:00:26;;;;;;;14.90;5.83;;;;;;;12.32;43.35;154352.42;1745642;82;21320;-62
2021/01/15 08:03:02;;;;;;;17.05;7.08;;;;;;;11.83;41.64;154223.78;1745740;82;21327;-62
2021/01/15 08:05:35;;;;;;;21.77;7.40;;;;;;;12.06;42.73;154282.86;1745826;82;21359;-63
2021/01/15 08:08:17;;;;;;;12.75;6.28;;;;;;;12.43;42.42;154380.02;1745648;82;21327;-62
2021/01/15 08:10:50;;;;;;;16.45;6.20;;;;;;;11.90;42.80;154242.19;1745679;82;21859;-63
2021/01/15 08:13:26;;;;;;;17.50;7.10;;;;;;;11.78;41.80;154210.69;1745698;82;21842;-62
2021/01/15 08:16:04;;;;;;;16.85;6.95;;;;;;;11.49;41.45;154133.22;1745801;81;21170;-61
2021/01/15 08:18:43;;;;;;;13.65;6.12;;;;;;;11.52;42.34;154139.77;1745805;82;21331;-62
2021/01/15 08:21:20;;;;;;;13.40;6.35;;;;;;;11.67;42.64;154179.19;1745562;82;21378;-63
2021/01/15 08:24:11;;;;;;;14.93;6.20;;;;;;;11.68;41.54;154181.81;1719971;82;21320;-63
2021/01/15 08:26:53;;;;;;;14.18;6.12;;;;;;;11.67;40.92;154179.19;1744576;82;21310;-63
2021/01/15 08:29:29;;;;;;;18.17;5.83;;;;;;;11.64;42.22;154172.59;1745639;82;21331;-62
2021/01/15 08:32:03;;;;;;;17.65;7.45;;;;;;;11.60;45.97;154160.80;1745592;82;21185;-62
2021/01/15 08:34:38;;;;;;;18.00;6.42;;;;;;;11.21;42.18;154059.75;1745878;82;21312;-62
2021/01/15 08:37:14;;;;;;;17.23;6.25;;;;;;;11.61;41.85;154163.42;1745672;82;21324;-64
2021/01/15 08:39:55;;;;;;;15.98;6.78;;;;;;;11.28;41.50;154076.80;1745619;81;21897;-61
2021/01/15 08:42:31;;;;;;;16.20;6.58;;;;;;;11.17;40.98;154049.23;1742147;80;21232;-63
2021/01/15 08:45:06;;;;;;;18.48;6.55;;;;;;;11.45;41.75;154121.42;1735798;82;21371;-63
2021/01/15 08:47:41;;;;;;;13.65;6.60;;;;;;;11.47;42.69;154126.63;1744425;80;21419;-61
2021/01/15 08:50:18;;;;;;;10.95;5.45;;;;;;;11.60;41.84;154160.80;1743390;80;21332;-62
2021/01/15 08:52:52;;;;;;;13.62;5.37;;;;;;;11.63;42.03;154169.97;1733701;82;21673;-61
2021/01/15 08:55:26;;;;;;;17.37;6.35;;;;;;;11.62;42.19;154166.06;1734129;82;21407;-62
2021/01/15 08:57:59;;;;;;;14.55;5.45;;;;;;;11.29;41.01;154080.72;1733631;81;21316;-62
2021/01/15 09:00:38;;;;;;;18.20;6.45;;;;;;;11.55;41.13;154147.70;1691428;82;21222;-64
2021/01/15 09:03:12;;;;;;;14.33;6.00;;;;;;;11.73;41.56;154197.55;1733787;81;21217;-62
2021/01/15 09:05:49;;;;;;;13.35;5.22;;;;;;;11.84;41.16;154225.13;1733939;81;21234;-65
2021/01/15 09:08:25;;;;;;;14.78;5.50;;;;;;;12.15;41.90;154307.77;1704764;82;21261;-62
2021/01/15 09:11:02;;;;;;;10.75;5.28;;;;;;;12.45;41.13;154385.22;1691958;82;21192;-65
2021/01/15 09:13:38;;;;;;;10.13;5.25;;;;;;;12.73;42.10;154460.13;1708716;82;21356;-64
2021/01/15 09:16:21;;;;;;;15.32;5.70;;;;;;;12.54;41.58;154408.91;1710570;81;21546;-60
2021/01/15 09:18:59;;;;;;;9.63;4.83;;;;;;;12.31;44.50;154348.50;1731344;81;21407;-63
2021/01/15 09:21:33;;;;;;;11.83;5.22;;;;;;;11.33;41.08;154091.22;1733812;81;21308;-62
2021/01/15 09:24:09;;;;;;;11.38;5.17;;;;;;;11.63;42.94;154168.69;1733367;82;21379;-63
2021/01/15 09:26:47;;;;;;;12.82;6.72;;;;;;;11.56;41.98;154151.63;1733103;82;21422;-61
2021/01/15 09:29:24;;;;;;;13.50;6.78;;;;;;;11.34;40.56;154093.84;1733551;82;21328;-66
2021/01/15 09:32:01;;;;;;;15.65;5.60;;;;;;;11.41;42.02;154110.91;1731338;81;21359;-63
2021/01/15 09:34:36;;;;;;;18.17;5.50;;;;;;;11.54;43.27;154145.08;1734096;82;21356;-68
2021/01/15 09:37:13;;;;;;;13.75;6.47;;;;;;;11.33;41.26;154089.94;1734695;81;21431;-63
2021/01/15 09:39:48;;;;;;;13.83;5.22;;;;;;;11.39;42.04;154105.66;1733902;81;21366;-63
2021/01/15 09:42:25;;;;;;;12.03;5.05;;;;;;;11.13;41.34;154038.78;1737535;81;21322;-64
2021/01/15 09:45:01;;;;;;;14.40;6.25;;;;;;;11.33;42.99;154089.94;1732952;81;21709;-62
2021/01/15 09:47:36;;;;;;;14.80;6.08;;;;;;;11.47;41.73;154127.97;1736529;81;22029;-63
2021/01/15 09:50:12;;;;;;;12.80;6.60;;;;;;;11.62;42.13;154167.39;1738504;81;21196;-62
2021/01/15 09:52:53;;;;;;;16.07;6.95;;;;;;;11.11;40.73;154033.53;1739978;81;21346;-63
2021/01/15 09:55:31;;;;;;;11.65;5.78;;;;;;;11.01;40.90;154007.31;1736262;81;21194;-63
2021/01/15 09:58:07;;;;;;;17.25;6.95;;;;;;;11.10;40.18;154029.61;1746680;81;21197;-63
2021/01/15 10:03:27;;;;;;;15.58;5.90;;;;;;;11.46;42.28;154125.34;1826003;78;21190;-64
2021/01/15 10:06:01;;;;;;;10.38;4.75;;;;;;;11.88;41.73;154236.92;1826452;78;21202;-64
2021/01/15 10:08:36;;;;;;;11.18;5.80;;;;;;;12.59;41.27;154423.34;1827356;78;21202;-65
2021/01/15 10:14:00;;;;;;;14.20;5.12;;;;;;;12.76;41.07;154469.31;1762914;80;21377;-61
2021/01/15 10:16:38;;;;;;;11.50;5.67;;;;;;;13.20;41.48;154583.61;1764145;80;21349;-63
2021/01/15 10:19:11;;;;;;;13.03;5.95;;;;;;;12.36;39.31;154362.94;1769390;79;21239;-64
2021/01/15 10:21:46;;;;;;;12.10;5.37;;;;;;;12.91;41.23;154507.44;1789477;78;21204;-66
2021/01/15 10:24:19;;;;;;;10.03;4.42;;;;;;;12.38;39.22;154366.86;1757726;80;21356;-64
2021/01/15 10:26:54;;;;;;;11.80;5.20;;;;;;;12.46;40.70;154389.19;1759226;80;21731;-63
2021/01/15 10:29:28;;;;;;;10.60;5.70;;;;;;;12.53;41.09;154406.27;1758898;80;21394;-66
2021/01/15 10:32:01;;;;;;;17.37;6.42;;;;;;;12.77;42.06;154471.94;1761225;80;21358;-65
2021/01/15 10:34:35;;;;;;;10.45;4.83;;;;;;;12.80;40.92;154479.78;1778574;80;21183;-66
2021/01/15 10:37:09;;;;;;;12.28;5.35;;;;;;;12.71;41.75;154454.86;1786493;80;21717;-63
2021/01/15 10:39:42;;;;;;;15.83;6.62;;;;;;;12.78;41.94;154473.23;1737962;81;21433;-62
2021/01/15 10:42:18;;;;;;;11.83;5.37;;;;;;;12.34;42.23;154357.69;1730153;81;21413;-62
2021/01/15 10:44:51;;;;;;;12.45;5.70;;;;;;;12.07;39.79;154286.78;1746771;81;21323;-62
2021/01/15 10:47:25;;;;;;;11.60;5.22;;;;;;;11.87;40.41;154234.30;1752384;81;21818;-67
2021/01/15 10:49:58;;;;;;;11.88;5.47;;;;;;;11.07;39.85;154021.73;1748264;81;21362;-65
2021/01/15 10:52:31;;;;;;;14.18;5.85;;;;;;;10.98;40.77;153998.14;1746540;81;21358;-64
2021/01/15 10:55:05;;;;;;;11.00;5.65;;;;;;;11.15;40.22;154042.69;1740050;81;21220;-64
2021/01/15 10:57:38;;;;;;;16.32;6.10;;;;;;;10.87;40.01;153969.30;1733149;81;22317;-63
2021/01/15 11:00:14;;;;;;;16.30;6.85;;;;;;;11.09;40.34;154026.98;1755282;81;21390;-63
2021/01/15 11:02:53;;;;;;;11.93;5.42;;;;;;;12.29;39.49;154343.25;1732126;81;21342;-63
2021/01/15 11:05:26;;;;;;;9.20;4.03;;;;;;;12.57;39.62;154416.73;1739892;81;21715;-63
2021/01/15 11:07:59;;;;;;;10.43;4.75;;;;;;;11.50;37.85;154134.52;1756336;81;21326;-62
2021/01/15 11:10:32;;;;;;;11.43;4.83;;;;;;;12.19;39.11;154318.28;1750424;81;21244;-62
2021/01/15 11:13:04;;;;;;;12.75;5.58;;;;;;;12.03;37.47;154274.97;1759929;81;21310;-61
2021/01/15 11:15:37;;;;;;;14.35;5.05;;;;;;;11.43;37.06;154116.16;1760195;81;21750;-62
2021/01/15 11:18:10;;;;;;;13.10;5.97;;;;;;;11.52;37.76;154139.77;1756830;81;21227;-62
2021/01/15 11:20:45;;;;;;;11.60;4.72;;;;;;;11.85;40.33;154227.75;1766478;81;21409;-62
2021/01/15 11:23:18;;;;;;;14.75;5.08;;;;;;;11.87;38.83;154234.30;1746359;81;21242;-63
2021/01/15 11:25:51;;;;;;;12.30;5.00;;;;;;;11.64;37.31;154172.59;1763687;81;21196;-63
2021/01/15 11:28:25;;;;;;;9.83;4.92;;;;;;;12.13;39.24;154301.22;1743918;81;21248;-62
2021/01/15 11:30:58;;;;;;;11.55;5.03;;;;;;;12.19;39.31;154317.00;1745844;81;21219;-62
2021/01/15 11:33:31;;;;;;;11.03;5.45;;;;;;;11.94;37.85;154252.66;1758073;81;21323;-63
2021/01/15 11:36:06;;;;;;;12.07;5.62;;;;;;;12.03;40.04;154276.31;1761256;81;21727;-63
2021/01/15 11:38:39;;;;;;;10.93;5.12;;;;;;;11.87;38.95;154232.95;1747422;81;21298;-64
2021/01/15 11:41:17;;;;;;;12.70;5.58;;;;;;;12.10;39.11;154294.67;1742454;81;21215;-63
2021/01/15 11:43:50;;;;;;;13.05;5.90;;;;;;;12.32;41.24;154352.42;1738899;82;21203;-63
2021/01/15 11:46:23;;;;;;;10.20;4.95;;;;;;;11.91;39.09;154243.47;1753715;81;21773;-64
2021/01/15 11:48:56;;;;;;;9.98;4.90;;;;;;;11.70;37.54;154189.66;1769088;81;21287;-63
2021/01/15 11:51:29;;;;;;;13.80;5.78;;;;;;;12.05;40.60;154280.23;1766746;81;21194;-62
2021/01/15 11:54:02;;;;;;;12.40;4.87;;;;;;;11.61;38.26;154163.42;1745614;79;21246;-62
2021/01/15 11:56:35;;;;;;;12.65;5.28;;;;;;;11.79;39.48;154213.31;1749687;80;21147;-64
2021/01/15 11:59:14;;;;;;;17.40;6.08;;;;;;;11.75;38.49;154202.80;1747160;81;21221;-64
2021/01/15 12:01:45;;;;;;;12.37;4.90;;;;;;;11.68;39.52;154183.11;1741206;81;21221;-64